sensor_id;sensor_type;location;lat;lon;timestamp;temperature;humidity
64796;DHT22;51229;51.980;6.722;2023-03-01T00:01:02;-0.90;99.90
64796;DHT22;51229;51.980;6.722;2023-03-01T00:03:28;-0.90;99.90
64796;DHT22;51229;51.980;6.722;2023-03-01T00:05:54;-1.00;99.90
64796;DHT22;51229;51.980;6.722;2023-03-01T00:08:19;-1.00;99.90
64796;DHT22;51229;51.980;6.722;2023-03-01T00:10:45;-1.10;99.90
64796;DHT22;51229;51.980;6.722;2023-03-01T00:13:10;-1.10;99.90
64796;DHT22;51229;51.980;6.722;2023-03-01T00:15:40;-1.10;99.90
64796;DHT22;51229;51.980;6.722;2023-03-01T00:18:09;-1.10;99.90
64796;DHT22;51229;51.980;6.722;2023-03-01T00:20:35;-1.20;99.90
64796;DHT22;51229;51.980;6.722;2023-03-01T00:23:00;-1.20;99.90
64796;DHT22;51229;51.980;6.722;2023-03-01T00:25:26;-1.20;99.90
64796;DHT22;51229;51.980;6.722;2023-03-01T00:27:52;-1.20;99.90
64796;DHT22;51229;51.980;6.722;2023-03-01T00:30:18;-1.30;99.90
64796;DHT22;51229;51.980;6.722;2023-03-01T00:32:45;-1.30;99.90
64796;DHT22;51229;51.980;6.722;2023-03-01T00:35:10;-1.20;99.90
64796;DHT22;51229;51.980;6.722;2023-03-01T00:37:36;-1.30;99.90
64796;DHT22;51229;51.980;6.722;2023-03-01T00:40:02;-1.30;99.90
64796;DHT22;51229;51.980;6.722;2023-03-01T00:42:31;-1.30;99.90
64796;DHT22;51229;51.980;6.722;2023-03-01T00:44:57;-1.30;99.90
64796;DHT22;51229;51.980;6.722;2023-03-01T00:47:22;-1.40;99.90
64796;DHT22;51229;51.980;6.722;2023-03-01T00:49:48;-1.40;99.90
64796;DHT22;51229;51.980;6.722;2023-03-01T00:52:15;-1.40;99.90
64796;DHT22;51229;51.980;6.722;2023-03-01T00:54:40;-1.50;99.90
64796;DHT22;51229;51.980;6.722;2023-03-01T00:57:07;-1.50;99.90
64796;DHT22;51229;51.980;6.722;2023-03-01T00:59:33;-1.50;99.90
64796;DHT22;51229;51.980;6.722;2023-03-01T01:01:58;-1.60;99.90
64796;DHT22;51229;51.980;6.722;2023-03-01T01:04:24;-1.60;99.90
64796;DHT22;51229;51.980;6.722;2023-03-01T01:06:50;-1.60;99.90
64796;DHT22;51229;51.980;6.722;2023-03-01T01:09:17;-1.70;99.90
64796;DHT22;51229;51.980;6.722;2023-03-01T01:11:47;-1.70;99.90
64796;DHT22;51229;51.980;6.722;2023-03-01T01:14:13;-1.70;99.90
64796;DHT22;51229;51.980;6.722;2023-03-01T01:16:39;-1.70;99.90
64796;DHT22;51229;51.980;6.722;2023-03-01T01:19:06;-1.70;99.90
64796;DHT22;51229;51.980;6.722;2023-03-01T01:21:31;-1.80;99.90
64796;DHT22;51229;51.980;6.722;2023-03-01T01:23:58;-1.80;99.90
64796;DHT22;51229;51.980;6.722;2023-03-01T01:26:32;-1.80;99.90
64796;DHT22;51229;51.980;6.722;2023-03-01T01:28:58;-1.80;99.90
64796;DHT22;51229;51.980;6.722;2023-03-01T01:31:26;-1.90;99.90
64796;DHT22;51229;51.980;6.722;2023-03-01T01:33:52;-1.90;99.90
64796;DHT22;51229;51.980;6.722;2023-03-01T01:36:19;-2.00;99.90
64796;DHT22;51229;51.980;6.722;2023-03-01T01:38:44;-2.00;99.90
64796;DHT22;51229;51.980;6.722;2023-03-01T01:41:11;-2.00;99.90
64796;DHT22;51229;51.980;6.722;2023-03-01T01:43:40;-2.00;99.90
64796;DHT22;51229;51.980;6.722;2023-03-01T01:46:23;-2.10;99.90
64796;DHT22;51229;51.980;6.722;2023-03-01T01:49:00;-2.10;99.90
64796;DHT22;51229;51.980;6.722;2023-03-01T01:51:35;-2.20;99.90
64796;DHT22;51229;51.980;6.722;2023-03-01T01:54:16;-2.20;99.90
64796;DHT22;51229;51.980;6.722;2023-03-01T01:56:49;-2.30;99.90
64796;DHT22;51229;51.980;6.722;2023-03-01T01:59:17;-2.20;99.90
64796;DHT22;51229;51.980;6.722;2023-03-01T02:01:43;-2.30;99.90
64796;DHT22;51229;51.980;6.722;2023-03-01T02:04:09;-2.30;99.90
64796;DHT22;51229;51.980;6.722;2023-03-01T02:06:39;-2.30;99.90
64796;DHT22;51229;51.980;6.722;2023-03-01T02:09:12;-2.30;99.90
64796;DHT22;51229;51.980;6.722;2023-03-01T02:11:39;-2.40;99.90
64796;DHT22;51229;51.980;6.722;2023-03-01T02:14:05;-2.40;99.90
64796;DHT22;51229;51.980;6.722;2023-03-01T02:16:31;-2.40;99.90
64796;DHT22;51229;51.980;6.722;2023-03-01T02:18:58;-2.40;99.90
64796;DHT22;51229;51.980;6.722;2023-03-01T02:21:45;-2.50;99.90
64796;DHT22;51229;51.980;6.722;2023-03-01T02:27:11;-2.50;99.90
64796;DHT22;51229;51.980;6.722;2023-03-01T02:29:38;-2.50;99.90
64796;DHT22;51229;51.980;6.722;2023-03-01T02:32:04;-2.50;99.90
64796;DHT22;51229;51.980;6.722;2023-03-01T02:34:35;-2.50;99.90
64796;DHT22;51229;51.980;6.722;2023-03-01T02:37:25;-2.50;99.90
64796;DHT22;51229;51.980;6.722;2023-03-01T02:40:04;-2.50;99.90
64796;DHT22;51229;51.980;6.722;2023-03-01T02:43:01;-2.60;99.90
64796;DHT22;51229;51.980;6.722;2023-03-01T02:45:50;-2.60;99.90
64796;DHT22;51229;51.980;6.722;2023-03-01T02:48:17;-2.60;99.90
64796;DHT22;51229;51.980;6.722;2023-03-01T02:51:04;-2.60;99.90
64796;DHT22;51229;51.980;6.722;2023-03-01T02:56:38;-2.70;99.90
64796;DHT22;51229;51.980;6.722;2023-03-01T02:59:05;-2.80;99.90
64796;DHT22;51229;51.980;6.722;2023-03-01T03:01:31;-2.80;99.90
64796;DHT22;51229;51.980;6.722;2023-03-01T03:04:06;-2.80;99.90
64796;DHT22;51229;51.980;6.722;2023-03-01T03:06:32;-2.80;99.90
64796;DHT22;51229;51.980;6.722;2023-03-01T03:08:59;-2.80;99.90
64796;DHT22;51229;51.980;6.722;2023-03-01T03:11:25;-2.80;99.90
64796;DHT22;51229;51.980;6.722;2023-03-01T03:13:51;-2.80;99.90
64796;DHT22;51229;51.980;6.722;2023-03-01T03:16:18;-2.90;99.90
64796;DHT22;51229;51.980;6.722;2023-03-01T03:18:44;-2.90;99.90
64796;DHT22;51229;51.980;6.722;2023-03-01T03:21:11;-2.90;99.90
64796;DHT22;51229;51.980;6.722;2023-03-01T03:23:37;-2.90;99.90
64796;DHT22;51229;51.980;6.722;2023-03-01T03:26:04;-2.90;99.90
64796;DHT22;51229;51.980;6.722;2023-03-01T03:28:34;-2.80;99.90
64796;DHT22;51229;51.980;6.722;2023-03-01T03:31:01;-2.90;99.90
64796;DHT22;51229;51.980;6.722;2023-03-01T03:33:32;-2.80;99.90
64796;DHT22;51229;51.980;6.722;2023-03-01T03:35:58;-2.90;99.90
64796;DHT22;51229;51.980;6.722;2023-03-01T03:38:23;-2.90;99.90
64796;DHT22;51229;51.980;6.722;2023-03-01T03:43:29;-2.90;99.90
64796;DHT22;51229;51.980;6.722;2023-03-01T03:45:55;-3.00;99.90
64796;DHT22;51229;51.980;6.722;2023-03-01T03:48:23;-2.90;99.90
64796;DHT22;51229;51.980;6.722;2023-03-01T03:50:52;-2.90;99.90
64796;DHT22;51229;51.980;6.722;2023-03-01T03:53:19;-2.90;99.90
64796;DHT22;51229;51.980;6.722;2023-03-01T03:55:45;-2.90;99.90
64796;DHT22;51229;51.980;6.722;2023-03-01T03:58:11;-2.90;99.90
64796;DHT22;51229;51.980;6.722;2023-03-01T04:00:41;-2.90;99.90
64796;DHT22;51229;51.980;6.722;2023-03-01T04:03:08;-2.90;99.90
64796;DHT22;51229;51.980;6.722;2023-03-01T04:05:35;-2.90;99.90
64796;DHT22;51229;51.980;6.722;2023-03-01T04:08:01;-2.90;99.90
64796;DHT22;51229;51.980;6.722;2023-03-01T04:10:43;-2.90;99.90
64796;DHT22;51229;51.980;6.722;2023-03-01T04:13:12;-3.00;99.90
64796;DHT22;51229;51.980;6.722;2023-03-01T04:15:39;-3.00;99.90
64796;DHT22;51229;51.980;6.722;2023-03-01T04:18:06;-2.90;99.90
64796;DHT22;51229;51.980;6.722;2023-03-01T04:20:34;-3.00;99.90
64796;DHT22;51229;51.980;6.722;2023-03-01T04:23:09;-3.00;99.90
64796;DHT22;51229;51.980;6.722;2023-03-01T04:25:54;-3.00;99.90
64796;DHT22;51229;51.980;6.722;2023-03-01T04:28:28;-3.00;99.90
64796;DHT22;51229;51.980;6.722;2023-03-01T04:30:55;-3.00;99.90
64796;DHT22;51229;51.980;6.722;2023-03-01T04:33:22;-3.00;99.90
64796;DHT22;51229;51.980;6.722;2023-03-01T04:35:48;-3.00;99.90
64796;DHT22;51229;51.980;6.722;2023-03-01T04:38:17;-3.00;99.90
64796;DHT22;51229;51.980;6.722;2023-03-01T04:40:43;-3.10;99.90
64796;DHT22;51229;51.980;6.722;2023-03-01T04:43:10;-3.10;99.90
64796;DHT22;51229;51.980;6.722;2023-03-01T04:45:36;-3.10;99.90
64796;DHT22;51229;51.980;6.722;2023-03-01T04:48:02;-3.10;99.90
64796;DHT22;51229;51.980;6.722;2023-03-01T04:50:29;-3.10;99.90
64796;DHT22;51229;51.980;6.722;2023-03-01T04:52:55;-3.10;99.90
64796;DHT22;51229;51.980;6.722;2023-03-01T04:55:25;-3.10;99.90
64796;DHT22;51229;51.980;6.722;2023-03-01T04:57:51;-3.10;99.90
64796;DHT22;51229;51.980;6.722;2023-03-01T05:00:17;-3.10;99.90
64796;DHT22;51229;51.980;6.722;2023-03-01T05:02:57;-3.10;99.90
64796;DHT22;51229;51.980;6.722;2023-03-01T05:05:41;-3.10;99.90
64796;DHT22;51229;51.980;6.722;2023-03-01T05:08:08;-3.10;99.90
64796;DHT22;51229;51.980;6.722;2023-03-01T05:10:34;-3.10;99.90
64796;DHT22;51229;51.980;6.722;2023-03-01T05:13:01;-3.20;99.90
64796;DHT22;51229;51.980;6.722;2023-03-01T05:15:29;-3.20;99.90
64796;DHT22;51229;51.980;6.722;2023-03-01T05:17:58;-3.10;99.90
64796;DHT22;51229;51.980;6.722;2023-03-01T05:20:25;-3.20;99.90
64796;DHT22;51229;51.980;6.722;2023-03-01T05:22:52;-3.10;99.90
64796;DHT22;51229;51.980;6.722;2023-03-01T05:25:20;-3.10;99.90
64796;DHT22;51229;51.980;6.722;2023-03-01T05:27:47;-3.20;99.90
64796;DHT22;51229;51.980;6.722;2023-03-01T05:30:13;-3.20;99.90
64796;DHT22;51229;51.980;6.722;2023-03-01T05:32:47;-3.20;99.90
64796;DHT22;51229;51.980;6.722;2023-03-01T05:35:14;-3.20;99.90
64796;DHT22;51229;51.980;6.722;2023-03-01T05:37:45;-3.20;99.90
64796;DHT22;51229;51.980;6.722;2023-03-01T05:40:14;-3.30;99.90
64796;DHT22;51229;51.980;6.722;2023-03-01T05:42:44;-3.30;99.90
64796;DHT22;51229;51.980;6.722;2023-03-01T05:45:11;-3.30;99.90
64796;DHT22;51229;51.980;6.722;2023-03-01T05:47:41;-3.30;99.90
64796;DHT22;51229;51.980;6.722;2023-03-01T05:50:14;-3.30;99.90
64796;DHT22;51229;51.980;6.722;2023-03-01T05:52:45;-3.30;99.90
64796;DHT22;51229;51.980;6.722;2023-03-01T05:55:11;-3.30;99.90
64796;DHT22;51229;51.980;6.722;2023-03-01T05:57:36;-3.30;99.90
64796;DHT22;51229;51.980;6.722;2023-03-01T06:00:02;-3.30;99.90
64796;DHT22;51229;51.980;6.722;2023-03-01T06:02:38;-3.50;99.90
64796;DHT22;51229;51.980;6.722;2023-03-01T06:05:05;-3.50;99.90
64796;DHT22;51229;51.980;6.722;2023-03-01T06:07:31;-3.40;99.90
64796;DHT22;51229;51.980;6.722;2023-03-01T06:09:57;-3.30;99.90
64796;DHT22;51229;51.980;6.722;2023-03-01T06:12:22;-3.30;99.90
64796;DHT22;51229;51.980;6.722;2023-03-01T06:14:48;-3.40;99.90
64796;DHT22;51229;51.980;6.722;2023-03-01T06:17:14;-3.30;99.90
64796;DHT22;51229;51.980;6.722;2023-03-01T06:19:39;-3.30;99.90
64796;DHT22;51229;51.980;6.722;2023-03-01T06:22:05;-3.30;99.90
64796;DHT22;51229;51.980;6.722;2023-03-01T06:24:31;-3.30;99.90
64796;DHT22;51229;51.980;6.722;2023-03-01T06:26:56;-3.30;99.90
64796;DHT22;51229;51.980;6.722;2023-03-01T06:29:22;-3.40;99.90
64796;DHT22;51229;51.980;6.722;2023-03-01T06:31:48;-3.30;99.90
64796;DHT22;51229;51.980;6.722;2023-03-01T06:34:14;-3.30;99.90
64796;DHT22;51229;51.980;6.722;2023-03-01T06:36:40;-3.30;99.90
64796;DHT22;51229;51.980;6.722;2023-03-01T06:39:06;-3.30;99.90
64796;DHT22;51229;51.980;6.722;2023-03-01T06:41:32;-3.30;99.90
64796;DHT22;51229;51.980;6.722;2023-03-01T06:43:59;-3.30;99.90
64796;DHT22;51229;51.980;6.722;2023-03-01T06:46:25;-3.40;99.90
64796;DHT22;51229;51.980;6.722;2023-03-01T06:48:50;-3.40;99.90
64796;DHT22;51229;51.980;6.722;2023-03-01T06:51:16;-3.30;99.90
64796;DHT22;51229;51.980;6.722;2023-03-01T06:53:41;-3.30;99.90
64796;DHT22;51229;51.980;6.722;2023-03-01T06:56:07;-3.40;99.90
64796;DHT22;51229;51.980;6.722;2023-03-01T06:58:33;-3.40;99.90
64796;DHT22;51229;51.980;6.722;2023-03-01T07:00:59;-3.30;99.90
64796;DHT22;51229;51.980;6.722;2023-03-01T07:03:25;-3.40;99.90
64796;DHT22;51229;51.980;6.722;2023-03-01T07:05:51;-3.30;99.90
64796;DHT22;51229;51.980;6.722;2023-03-01T07:08:18;-3.50;99.90
64796;DHT22;51229;51.980;6.722;2023-03-01T07:10:44;-3.80;99.90
64796;DHT22;51229;51.980;6.722;2023-03-01T07:13:10;-3.80;99.90
64796;DHT22;51229;51.980;6.722;2023-03-01T07:15:35;-3.80;99.90
64796;DHT22;51229;51.980;6.722;2023-03-01T07:18:02;-3.90;99.90
64796;DHT22;51229;51.980;6.722;2023-03-01T07:20:27;-3.50;99.90
64796;DHT22;51229;51.980;6.722;2023-03-01T07:22:54;-2.60;99.90
64796;DHT22;51229;51.980;6.722;2023-03-01T07:25:20;-2.30;99.90
64796;DHT22;51229;51.980;6.722;2023-03-01T07:27:53;-2.20;99.90
64796;DHT22;51229;51.980;6.722;2023-03-01T07:30:20;-1.90;99.90
64796;DHT22;51229;51.980;6.722;2023-03-01T07:32:46;-1.60;99.90
64796;DHT22;51229;51.980;6.722;2023-03-01T07:35:12;-1.60;99.90
64796;DHT22;51229;51.980;6.722;2023-03-01T07:37:37;-1.50;99.90
64796;DHT22;51229;51.980;6.722;2023-03-01T07:40:03;-1.30;99.90
64796;DHT22;51229;51.980;6.722;2023-03-01T07:42:29;-1.30;99.90
64796;DHT22;51229;51.980;6.722;2023-03-01T07:44:55;-1.20;99.90
64796;DHT22;51229;51.980;6.722;2023-03-01T07:47:20;-1.00;99.90
64796;DHT22;51229;51.980;6.722;2023-03-01T07:49:46;-0.80;99.90
64796;DHT22;51229;51.980;6.722;2023-03-01T07:52:12;-0.50;99.90
64796;DHT22;51229;51.980;6.722;2023-03-01T07:54:38;-0.30;99.90
64796;DHT22;51229;51.980;6.722;2023-03-01T07:57:04;0.10;99.90
64796;DHT22;51229;51.980;6.722;2023-03-01T07:59:29;0.60;99.90
64796;DHT22;51229;51.980;6.722;2023-03-01T08:01:56;1.00;99.90
64796;DHT22;51229;51.980;6.722;2023-03-01T08:04:22;1.40;99.90
64796;DHT22;51229;51.980;6.722;2023-03-01T08:06:50;1.80;99.90
64796;DHT22;51229;51.980;6.722;2023-03-01T08:09:16;1.80;99.90
64796;DHT22;51229;51.980;6.722;2023-03-01T08:11:42;1.90;99.90
64796;DHT22;51229;51.980;6.722;2023-03-01T08:14:08;2.20;99.90
64796;DHT22;51229;51.980;6.722;2023-03-01T08:16:33;2.50;99.90
64796;DHT22;51229;51.980;6.722;2023-03-01T08:19:08;2.40;99.90
64796;DHT22;51229;51.980;6.722;2023-03-01T08:21:34;2.60;99.90
64796;DHT22;51229;51.980;6.722;2023-03-01T08:24:04;2.80;99.90
64796;DHT22;51229;51.980;6.722;2023-03-01T08:26:31;3.10;99.90
64796;DHT22;51229;51.980;6.722;2023-03-01T08:28:58;2.70;99.90
64796;DHT22;51229;51.980;6.722;2023-03-01T08:31:31;2.70;99.90
64796;DHT22;51229;51.980;6.722;2023-03-01T08:33:58;2.60;99.90
64796;DHT22;51229;51.980;6.722;2023-03-01T08:36:31;3.10;99.90
64796;DHT22;51229;51.980;6.722;2023-03-01T08:38:57;3.10;99.90
64796;DHT22;51229;51.980;6.722;2023-03-01T08:41:23;3.30;99.90
64796;DHT22;51229;51.980;6.722;2023-03-01T08:43:49;3.80;99.90
64796;DHT22;51229;51.980;6.722;2023-03-01T08:46:15;4.00;99.90
64796;DHT22;51229;51.980;6.722;2023-03-01T08:48:41;4.90;99.90
64796;DHT22;51229;51.980;6.722;2023-03-01T08:51:10;5.80;99.90
64796;DHT22;51229;51.980;6.722;2023-03-01T08:53:37;6.20;99.90
64796;DHT22;51229;51.980;6.722;2023-03-01T08:56:03;6.70;95.80
64796;DHT22;51229;51.980;6.722;2023-03-01T08:58:29;6.30;99.90
64796;DHT22;51229;51.980;6.722;2023-03-01T09:00:55;6.50;97.30
64796;DHT22;51229;51.980;6.722;2023-03-01T09:03:22;6.80;93.90
64796;DHT22;51229;51.980;6.722;2023-03-01T09:05:49;6.40;95.00
64796;DHT22;51229;51.980;6.722;2023-03-01T09:08:19;6.70;98.80
64796;DHT22;51229;51.980;6.722;2023-03-01T09:10:45;7.10;95.70
64796;DHT22;51229;51.980;6.722;2023-03-01T09:13:11;6.80;91.30
64796;DHT22;51229;51.980;6.722;2023-03-01T09:15:37;6.80;94.70
64796;DHT22;51229;51.980;6.722;2023-03-01T09:18:03;7.10;95.50
64796;DHT22;51229;51.980;6.722;2023-03-01T09:20:30;7.80;87.40
64796;DHT22;51229;51.980;6.722;2023-03-01T09:22:57;8.40;91.00
64796;DHT22;51229;51.980;6.722;2023-03-01T09:25:23;7.50;83.70
64796;DHT22;51229;51.980;6.722;2023-03-01T09:27:51;7.80;90.80
64796;DHT22;51229;51.980;6.722;2023-03-01T09:30:17;7.20;80.60
64796;DHT22;51229;51.980;6.722;2023-03-01T09:32:43;7.20;82.30
64796;DHT22;51229;51.980;6.722;2023-03-01T09:35:13;6.60;78.10
64796;DHT22;51229;51.980;6.722;2023-03-01T09:37:39;6.60;92.30
64796;DHT22;51229;51.980;6.722;2023-03-01T09:40:15;7.10;76.00
64796;DHT22;51229;51.980;6.722;2023-03-01T09:43:07;7.00;89.00
64796;DHT22;51229;51.980;6.722;2023-03-01T09:45:40;7.60;77.30
64796;DHT22;51229;51.980;6.722;2023-03-01T09:48:15;7.50;83.00
64796;DHT22;51229;51.980;6.722;2023-03-01T09:50:41;7.60;93.80
64796;DHT22;51229;51.980;6.722;2023-03-01T09:53:20;8.00;76.20
64796;DHT22;51229;51.980;6.722;2023-03-01T09:56:03;8.20;73.00
64796;DHT22;51229;51.980;6.722;2023-03-01T10:01:28;8.00;73.70
64796;DHT22;51229;51.980;6.722;2023-03-01T10:07:10;8.80;76.60
64796;DHT22;51229;51.980;6.722;2023-03-01T10:09:42;9.40;83.60
64796;DHT22;51229;51.980;6.722;2023-03-01T10:12:18;9.40;83.20
64796;DHT22;51229;51.980;6.722;2023-03-01T10:15:02;8.10;79.60
64796;DHT22;51229;51.980;6.722;2023-03-01T10:17:46;8.10;70.50
64796;DHT22;51229;51.980;6.722;2023-03-01T10:22:45;8.50;72.40
64796;DHT22;51229;51.980;6.722;2023-03-01T10:25:20;8.30;75.90
64796;DHT22;51229;51.980;6.722;2023-03-01T10:27:51;7.90;67.40
64796;DHT22;51229;51.980;6.722;2023-03-01T10:32:48;8.00;70.20
64796;DHT22;51229;51.980;6.722;2023-03-01T10:35:24;8.50;72.40
64796;DHT22;51229;51.980;6.722;2023-03-01T10:38:09;10.00;76.50
64796;DHT22;51229;51.980;6.722;2023-03-01T10:40:36;9.10;63.80
64796;DHT22;51229;51.980;6.722;2023-03-01T10:43:12;8.80;68.20
64796;DHT22;51229;51.980;6.722;2023-03-01T10:45:39;8.90;67.00
64796;DHT22;51229;51.980;6.722;2023-03-01T10:50:33;9.50;67.60
64796;DHT22;51229;51.980;6.722;2023-03-01T10:53:04;9.60;66.40
64796;DHT22;51229;51.980;6.722;2023-03-01T10:55:39;11.30;69.50
64796;DHT22;51229;51.980;6.722;2023-03-01T10:58:19;10.20;58.70
64796;DHT22;51229;51.980;6.722;2023-03-01T11:00:57;9.90;67.00
64796;DHT22;51229;51.980;6.722;2023-03-01T11:03:26;9.70;73.50
64796;DHT22;51229;51.980;6.722;2023-03-01T11:06:12;9.70;80.00
64796;DHT22;51229;51.980;6.722;2023-03-01T11:08:47;10.20;70.10
64796;DHT22;51229;51.980;6.722;2023-03-01T11:13:58;10.70;81.90
64796;DHT22;51229;51.980;6.722;2023-03-01T11:16:33;11.60;71.40
64796;DHT22;51229;51.980;6.722;2023-03-01T11:21:38;10.90;76.80
64796;DHT22;51229;51.980;6.722;2023-03-01T11:24:10;11.60;71.10
64796;DHT22;51229;51.980;6.722;2023-03-01T11:26:39;11.80;77.70
64796;DHT22;51229;51.980;6.722;2023-03-01T11:29:16;11.90;63.00
64796;DHT22;51229;51.980;6.722;2023-03-01T11:31:44;11.70;62.50
64796;DHT22;51229;51.980;6.722;2023-03-01T11:34:15;13.30;84.40
64796;DHT22;51229;51.980;6.722;2023-03-01T11:36:55;12.50;81.40
64796;DHT22;51229;51.980;6.722;2023-03-01T11:39:32;12.80;59.00
64796;DHT22;51229;51.980;6.722;2023-03-01T11:44:37;11.70;76.30
64796;DHT22;51229;51.980;6.722;2023-03-01T11:50:18;12.60;73.40
64796;DHT22;51229;51.980;6.722;2023-03-01T11:53:02;14.00;89.00
64796;DHT22;51229;51.980;6.722;2023-03-01T12:04:20;14.80;87.40
64796;DHT22;51229;51.980;6.722;2023-03-01T12:06:57;15.10;82.10
64796;DHT22;51229;51.980;6.722;2023-03-01T12:12:42;15.50;67.90
64796;DHT22;51229;51.980;6.722;2023-03-01T12:18:06;12.90;74.50
64796;DHT22;51229;51.980;6.722;2023-03-01T12:29:12;14.00;65.80
64796;DHT22;51229;51.980;6.722;2023-03-01T12:32:15;14.50;72.90
64796;DHT22;51229;51.980;6.722;2023-03-01T12:35:06;14.40;68.00
64796;DHT22;51229;51.980;6.722;2023-03-01T12:51:20;15.60;76.60
64796;DHT22;51229;51.980;6.722;2023-03-01T12:53:50;14.50;52.20
64796;DHT22;51229;51.980;6.722;2023-03-01T12:56:24;14.20;57.00
64796;DHT22;51229;51.980;6.722;2023-03-01T12:59:16;13.80;88.00
64796;DHT22;51229;51.980;6.722;2023-03-01T13:02:04;14.40;56.30
64796;DHT22;51229;51.980;6.722;2023-03-01T13:04:56;14.60;63.20
64796;DHT22;51229;51.980;6.722;2023-03-01T13:07:44;15.40;82.30
64796;DHT22;51229;51.980;6.722;2023-03-01T13:15:28;14.30;57.50
64796;DHT22;51229;51.980;6.722;2023-03-01T13:18:03;14.10;55.10
64796;DHT22;51229;51.980;6.722;2023-03-01T13:26:00;15.40;66.00
64796;DHT22;51229;51.980;6.722;2023-03-01T13:28:46;12.70;93.50
64796;DHT22;51229;51.980;6.722;2023-03-01T13:33:46;10.80;99.50
64796;DHT22;51229;51.980;6.722;2023-03-01T13:41:50;8.80;90.20
64796;DHT22;51229;51.980;6.722;2023-03-01T13:44:32;10.10;84.60
64796;DHT22;51229;51.980;6.722;2023-03-01T13:55:00;9.40;70.50
64796;DHT22;51229;51.980;6.722;2023-03-01T13:57:34;8.60;90.10
64796;DHT22;51229;51.980;6.722;2023-03-01T14:00:01;8.80;97.60
64796;DHT22;51229;51.980;6.722;2023-03-01T14:02:30;9.20;99.90
64796;DHT22;51229;51.980;6.722;2023-03-01T14:05:00;7.80;79.60
64796;DHT22;51229;51.980;6.722;2023-03-01T14:07:27;7.90;82.80
64796;DHT22;51229;51.980;6.722;2023-03-01T14:10:04;7.80;85.00
64796;DHT22;51229;51.980;6.722;2023-03-01T14:15:25;7.10;99.90
64796;DHT22;51229;51.980;6.722;2023-03-01T14:17:59;7.30;99.70
64796;DHT22;51229;51.980;6.722;2023-03-01T14:20:28;6.90;71.80
64796;DHT22;51229;51.980;6.722;2023-03-01T14:22:57;6.40;74.30
64796;DHT22;51229;51.980;6.722;2023-03-01T14:25:31;7.30;85.70
64796;DHT22;51229;51.980;6.722;2023-03-01T14:28:16;6.90;99.90
64796;DHT22;51229;51.980;6.722;2023-03-01T14:30:45;7.20;97.90
64796;DHT22;51229;51.980;6.722;2023-03-01T14:33:22;6.90;99.90
64796;DHT22;51229;51.980;6.722;2023-03-01T14:36:06;7.10;94.00
64796;DHT22;51229;51.980;6.722;2023-03-01T14:41:03;6.60;93.20
64796;DHT22;51229;51.980;6.722;2023-03-01T14:43:33;7.00;99.90
64796;DHT22;51229;51.980;6.722;2023-03-01T14:45:59;7.80;99.90
64796;DHT22;51229;51.980;6.722;2023-03-01T14:48:26;7.90;90.10
64796;DHT22;51229;51.980;6.722;2023-03-01T14:50:52;6.90;96.30
64796;DHT22;51229;51.980;6.722;2023-03-01T14:53:21;7.00;99.90
64796;DHT22;51229;51.980;6.722;2023-03-01T14:55:54;6.60;94.00
64796;DHT22;51229;51.980;6.722;2023-03-01T14:58:23;6.50;89.20
64796;DHT22;51229;51.980;6.722;2023-03-01T15:01:00;6.60;77.40
64796;DHT22;51229;51.980;6.722;2023-03-01T15:06:00;6.90;78.90
64796;DHT22;51229;51.980;6.722;2023-03-01T15:08:27;6.50;78.60
64796;DHT22;51229;51.980;6.722;2023-03-01T15:11:17;6.50;76.90
64796;DHT22;51229;51.980;6.722;2023-03-01T15:13:44;6.50;80.30
64796;DHT22;51229;51.980;6.722;2023-03-01T15:16:18;6.30;99.90
64796;DHT22;51229;51.980;6.722;2023-03-01T15:18:49;6.40;99.90
64796;DHT22;51229;51.980;6.722;2023-03-01T15:21:33;6.30;96.90
64796;DHT22;51229;51.980;6.722;2023-03-01T15:24:13;5.90;80.20
64796;DHT22;51229;51.980;6.722;2023-03-01T15:26:51;5.70;98.80
64796;DHT22;51229;51.980;6.722;2023-03-01T15:29:24;6.20;86.90
64796;DHT22;51229;51.980;6.722;2023-03-01T15:32:04;5.70;91.90
64796;DHT22;51229;51.980;6.722;2023-03-01T15:34:34;6.20;99.90
64796;DHT22;51229;51.980;6.722;2023-03-01T15:37:04;6.20;72.00
64796;DHT22;51229;51.980;6.722;2023-03-01T15:41:57;5.60;78.00
64796;DHT22;51229;51.980;6.722;2023-03-01T15:44:28;5.30;80.40
64796;DHT22;51229;51.980;6.722;2023-03-01T15:46:54;5.30;93.80
64796;DHT22;51229;51.980;6.722;2023-03-01T15:49:41;5.50;99.90
64796;DHT22;51229;51.980;6.722;2023-03-01T15:52:25;5.60;81.10
64796;DHT22;51229;51.980;6.722;2023-03-01T15:55:00;5.50;99.70
64796;DHT22;51229;51.980;6.722;2023-03-01T15:57:26;5.20;86.90
64796;DHT22;51229;51.980;6.722;2023-03-01T15:59:52;5.00;93.40
64796;DHT22;51229;51.980;6.722;2023-03-01T16:02:18;5.00;90.30
64796;DHT22;51229;51.980;6.722;2023-03-01T16:04:47;5.20;97.60
64796;DHT22;51229;51.980;6.722;2023-03-01T16:07:14;5.40;94.50
64796;DHT22;51229;51.980;6.722;2023-03-01T16:09:40;5.40;99.90
64796;DHT22;51229;51.980;6.722;2023-03-01T16:12:08;5.50;99.90
64796;DHT22;51229;51.980;6.722;2023-03-01T16:14:35;5.20;96.20
64796;DHT22;51229;51.980;6.722;2023-03-01T16:17:00;5.00;97.30
64796;DHT22;51229;51.980;6.722;2023-03-01T16:19:26;4.80;95.30
64796;DHT22;51229;51.980;6.722;2023-03-01T16:21:52;4.80;99.90
64796;DHT22;51229;51.980;6.722;2023-03-01T16:24:17;4.80;99.90
64796;DHT22;51229;51.980;6.722;2023-03-01T16:26:43;5.10;99.90
64796;DHT22;51229;51.980;6.722;2023-03-01T16:29:09;5.20;99.90
64796;DHT22;51229;51.980;6.722;2023-03-01T16:31:35;5.10;99.90
64796;DHT22;51229;51.980;6.722;2023-03-01T16:34:00;4.90;99.00
64796;DHT22;51229;51.980;6.722;2023-03-01T16:36:27;4.80;99.90
64796;DHT22;51229;51.980;6.722;2023-03-01T16:38:58;5.00;99.90
64796;DHT22;51229;51.980;6.722;2023-03-01T16:41:24;5.10;99.00
64796;DHT22;51229;51.980;6.722;2023-03-01T16:43:50;4.60;99.90
64796;DHT22;51229;51.980;6.722;2023-03-01T16:46:24;4.60;98.40
64796;DHT22;51229;51.980;6.722;2023-03-01T16:48:51;4.40;99.90
64796;DHT22;51229;51.980;6.722;2023-03-01T16:51:18;4.20;99.90
64796;DHT22;51229;51.980;6.722;2023-03-01T16:53:44;4.30;99.90
64796;DHT22;51229;51.980;6.722;2023-03-01T16:56:13;4.40;98.60
64796;DHT22;51229;51.980;6.722;2023-03-01T16:58:40;4.30;99.90
64796;DHT22;51229;51.980;6.722;2023-03-01T17:01:18;4.20;98.90
64796;DHT22;51229;51.980;6.722;2023-03-01T17:03:45;4.40;99.90
64796;DHT22;51229;51.980;6.722;2023-03-01T17:06:17;4.00;98.90
64796;DHT22;51229;51.980;6.722;2023-03-01T17:08:43;3.80;99.90
64796;DHT22;51229;51.980;6.722;2023-03-01T17:11:11;3.90;99.90
64796;DHT22;51229;51.980;6.722;2023-03-01T17:13:38;4.10;99.90
64796;DHT22;51229;51.980;6.722;2023-03-01T17:16:06;4.20;99.90
64796;DHT22;51229;51.980;6.722;2023-03-01T17:18:33;3.90;99.90
64796;DHT22;51229;51.980;6.722;2023-03-01T17:20:58;3.70;99.90
64796;DHT22;51229;51.980;6.722;2023-03-01T17:23:25;3.50;99.90
64796;DHT22;51229;51.980;6.722;2023-03-01T17:25:51;3.50;99.90
64796;DHT22;51229;51.980;6.722;2023-03-01T17:28:20;4.00;99.90
64796;DHT22;51229;51.980;6.722;2023-03-01T17:30:46;3.80;99.90
64796;DHT22;51229;51.980;6.722;2023-03-01T17:33:13;3.40;99.90
64796;DHT22;51229;51.980;6.722;2023-03-01T17:35:38;3.60;99.90
64796;DHT22;51229;51.980;6.722;2023-03-01T17:38:05;3.60;99.90
64796;DHT22;51229;51.980;6.722;2023-03-01T17:40:31;3.30;99.90